Time;durP1;ratioP1;P1;durP2;ratioP2;P2;SDS_P1;SDS_P2;PMS_P1;PMS_P2;Temp;Humidity;BMP_temperature;BMP_pressure;BME280_temperature;BME280_humidity;BME280_pressure;Samples;Min_cycle;Max_cycle;Signal;HPM_P1;HPM_P2
2023/03/24 00:01:55;;;;;;;5.70;2.25;;;;;;;11.03;100.00;96368.94;5032386;28;20638;-60
2023/03/24 00:04:23;;;;;;;5.20;2.85;;;;;;;10.98;100.00;96365.47;5034522;28;20041;-61
2023/03/24 00:06:51;;;;;;;4.68;2.80;;;;;;;10.62;100.00;96366.44;5035271;28;20435;-61
2023/03/24 00:09:18;;;;;;;5.70;2.90;;;;;;;10.36;100.00;96367.31;5033839;28;20059;-61
2023/03/24 00:11:45;;;;;;;5.93;2.90;;;;;;;10.23;100.00;96366.00;5034956;28;20411;-59
2023/03/24 00:14:11;;;;;;;6.15;2.58;;;;;;;10.22;100.00;96372.50;5031460;28;20065;-59
2023/03/24 00:16:44;;;;;;;5.88;3.00;;;;;;;10.17;100.00;96358.97;5034954;28;20099;-59
2023/03/24 00:19:14;;;;;;;6.45;2.92;;;;;;;10.13;100.00;96358.72;5032847;28;20453;-59
2023/03/24 00:21:42;;;;;;;5.05;2.67;;;;;;;10.27;100.00;96348.13;5028824;28;20045;-60
2023/03/24 00:24:11;;;;;;;5.60;2.90;;;;;;;10.34;100.00;96350.53;5036421;28;21842;-60
2023/03/24 00:26:40;;;;;;;5.78;2.47;;;;;;;10.43;100.00;96349.97;5033265;28;20048;-59
2023/03/24 00:29:09;;;;;;;6.35;3.25;;;;;;;10.41;100.00;96352.97;5028628;28;20037;-60
2023/03/24 00:31:38;;;;;;;6.40;2.83;;;;;;;10.44;100.00;96348.88;5032227;28;20107;-60
2023/03/24 00:34:07;;;;;;;4.63;2.67;;;;;;;10.54;100.00;96332.63;5035572;28;20532;-60
2023/03/24 00:36:35;;;;;;;5.95;2.67;;;;;;;10.70;99.12;96333.38;5031207;28;20671;-60
2023/03/24 00:39:03;;;;;;;3.95;2.22;;;;;;;10.78;98.67;96337.41;5037257;28;20133;-61
2023/03/24 00:41:30;;;;;;;6.88;2.97;;;;;;;10.73;98.40;96329.31;5037310;28;20037;-58
2023/03/24 00:43:59;;;;;;;5.13;2.90;;;;;;;10.96;96.73;96325.13;5038209;28;20132;-60
2023/03/24 00:46:26;;;;;;;4.28;2.20;;;;;;;11.15;93.57;96321.75;5031576;28;20041;-60
2023/03/24 00:49:02;;;;;;;4.45;2.67;;;;;;;11.35;91.94;96325.41;5027612;28;20091;-60
2023/03/24 00:51:35;;;;;;;5.35;2.58;;;;;;;11.37;92.69;96312.38;5036857;28;20041;-58
2023/03/24 00:54:03;;;;;;;5.65;2.55;;;;;;;11.35;91.87;96315.34;5028556;28;20665;-59
2023/03/24 00:56:31;;;;;;;4.40;2.50;;;;;;;11.26;94.31;96301.63;5029699;28;20068;-60
2023/03/24 00:59:00;;;;;;;4.82;2.55;;;;;;;11.18;94.23;96313.84;5032209;28;20116;-59
2023/03/24 01:01:29;;;;;;;5.30;2.75;;;;;;;11.23;92.39;96298.66;5032308;28;20041;-58
2023/03/24 01:03:55;;;;;;;4.05;2.53;;;;;;;11.42;91.69;96304.19;5028579;28;20504;-60
2023/03/24 01:06:23;;;;;;;4.68;2.30;;;;;;;11.34;92.67;96292.06;5028157;28;20063;-59
2023/03/24 01:08:52;;;;;;;4.93;2.58;;;;;;;11.31;92.28;96289.91;5025466;28;20033;-60
2023/03/24 01:11:21;;;;;;;5.15;2.50;;;;;;;11.35;91.76;96282.03;5029238;28;20083;-59
2023/03/24 01:13:48;;;;;;;4.15;2.13;;;;;;;11.37;89.50;96274.44;5031100;28;20056;-58
2023/03/24 01:16:15;;;;;;;3.83;2.15;;;;;;;11.41;88.61;96279.00;5031130;28;20045;-59
2023/03/24 01:18:42;;;;;;;5.35;2.50;;;;;;;11.42;89.18;96274.38;5026036;28;20117;-59
2023/03/24 01:21:10;;;;;;;4.75;2.13;;;;;;;11.30;89.67;96272.03;5030228;28;20040;-60
2023/03/24 01:23:38;;;;;;;4.03;2.28;;;;;;;11.32;89.34;96267.97;5033131;28;20723;-60
2023/03/24 01:26:06;;;;;;;5.15;2.20;;;;;;;11.49;87.85;96272.16;5029482;28;20050;-60
2023/03/24 01:28:39;;;;;;;5.38;2.40;;;;;;;11.51;88.17;96267.28;5028962;28;20041;-60
2023/03/24 01:31:08;;;;;;;5.05;2.47;;;;;;;11.51;87.34;96259.13;5025546;28;20128;-60
2023/03/24 01:33:36;;;;;;;4.35;2.30;;;;;;;11.44;87.62;96255.94;5031532;28;20057;-59
2023/03/24 01:36:05;;;;;;;4.55;2.67;;;;;;;11.45;87.87;96254.84;5026116;28;20042;-59
2023/03/24 01:38:32;;;;;;;5.25;2.40;;;;;;;11.56;86.02;96245.53;5032114;28;20065;-59
2023/03/24 01:40:59;;;;;;;6.00;2.88;;;;;;;11.57;85.31;96247.13;5029544;28;20040;-60
2023/03/24 01:43:30;;;;;;;3.80;2.05;;;;;;;11.58;86.08;96248.75;5028850;28;20478;-60
2023/03/24 01:46:00;;;;;;;5.13;2.30;;;;;;;11.48;87.41;96248.03;5023963;28;20615;-59
2023/03/24 01:49:03;;;;;;;5.15;2.38;;;;;;;11.41;86.82;96242.94;5033806;28;20029;-59
2023/03/24 01:51:41;;;;;;;6.15;2.35;;;;;;;11.40;87.00;96241.34;5030236;28;20060;-60
2023/03/24 01:54:23;;;;;;;4.63;2.50;;;;;;;11.55;85.00;96230.38;5026702;28;20049;-60
2023/03/24 01:57:02;;;;;;;7.07;2.60;;;;;;;11.47;86.34;96232.88;5029759;28;20180;-57
2023/03/24 01:59:35;;;;;;;4.63;2.20;;;;;;;11.55;84.94;96240.38;5033336;28;20052;-56
2023/03/24 02:02:14;;;;;;;4.53;2.25;;;;;;;11.44;85.98;96236.97;5029419;28;20098;-59
2023/03/24 02:05:00;;;;;;;4.23;2.37;;;;;;;11.46;86.75;96229.34;5027180;28;20041;-59
2023/03/24 02:07:35;;;;;;;4.63;2.33;;;;;;;11.38;87.17;96236.19;5044814;28;20120;-59
2023/03/24 02:10:12;;;;;;;4.85;2.90;;;;;;;11.40;86.97;96234.03;5043554;28;20535;-60
2023/03/24 02:12:42;;;;;;;5.25;2.00;;;;;;;11.45;87.04;96230.44;5029539;28;20411;-60
2023/03/24 02:15:11;;;;;;;4.53;2.28;;;;;;;11.45;85.93;96225.84;5029548;28;20072;-58
2023/03/24 02:17:56;;;;;;;5.20;2.33;;;;;;;11.35;87.48;96230.56;5048267;28;20068;-60
2023/03/24 02:20:44;;;;;;;4.72;2.40;;;;;;;11.33;86.76;96225.41;5028406;28;20748;-60
2023/03/24 02:23:46;;;;;;;4.32;2.40;;;;;;;11.23;87.22;96229.03;5032827;28;20044;-60
2023/03/24 02:26:46;;;;;;;4.75;2.25;;;;;;;11.24;86.93;96225.22;5026783;28;20045;-58
2023/03/24 02:29:38;;;;;;;4.35;2.40;;;;;;;11.29;86.07;96225.19;5039362;28;20045;-60
2023/03/24 02:32:42;;;;;;;4.55;2.40;;;;;;;11.29;85.66;96224.38;5038674;28;20049;-57
2023/03/24 02:35:46;;;;;;;5.53;2.72;;;;;;;11.32;85.66;96224.59;5022263;28;20512;-59
2023/03/24 02:38:37;;;;;;;4.20;2.15;;;;;;;11.52;83.55;96228.22;5026078;28;20052;-60
2023/03/24 02:41:07;;;;;;;4.70;2.45;;;;;;;11.53;83.96;96232.53;5044580;28;20080;-60
2023/03/24 02:44:12;;;;;;;5.47;2.78;;;;;;;11.47;84.44;96224.75;5024232;28;20042;-59
2023/03/24 02:46:52;;;;;;;4.75;2.10;;;;;;;11.55;83.56;96226.84;5028288;28;20041;-56
2023/03/24 02:49:55;;;;;;;5.15;2.58;;;;;;;11.53;83.58;96221.69;5026944;28;20048;-57
2023/03/24 02:52:42;;;;;;;3.85;1.90;;;;;;;11.54;84.01;96220.59;5031802;28;20103;-59
2023/03/24 02:55:17;;;;;;;3.85;1.92;;;;;;;11.54;83.72;96201.63;5026749;28;20049;-59
2023/03/24 02:57:54;;;;;;;7.13;2.33;;;;;;;11.54;83.84;96204.31;5028504;28;20049;-57
2023/03/24 03:00:58;;;;;;;6.25;2.10;;;;;;;11.63;83.60;96201.00;5028922;28;20037;-60
2023/03/24 03:03:49;;;;;;;4.90;2.08;;;;;;;11.78;82.39;96206.25;5029888;28;20055;-60
2023/03/24 03:06:26;;;;;;;3.50;1.80;;;;;;;11.83;82.58;96195.34;5031026;28;20047;-60
2023/03/24 03:08:56;;;;;;;5.82;2.55;;;;;;;11.84;82.77;96188.03;5025806;28;20044;-59
2023/03/24 03:11:23;;;;;;;4.78;2.10;;;;;;;11.83;83.33;96194.53;5031210;28;20053;-60
2023/03/24 03:14:01;;;;;;;4.80;2.13;;;;;;;11.88;83.00;96185.53;5040990;28;20059;-60
2023/03/24 03:16:42;;;;;;;4.53;2.20;;;;;;;11.74;84.46;96188.13;5035103;28;20053;-60
2023/03/24 03:19:19;;;;;;;4.70;2.22;;;;;;;11.63;84.90;96171.16;5025410;28;20040;-60
2023/03/24 03:21:48;;;;;;;4.80;2.10;;;;;;;11.56;85.73;96169.63;5024779;28;20053;-57
2023/03/24 03:24:26;;;;;;;4.20;2.30;;;;;;;11.65;85.17;96156.22;5032552;28;20045;-58
2023/03/24 03:26:57;;;;;;;4.28;2.00;;;;;;;11.78;84.46;96153.91;5027454;28;20045;-59
2023/03/24 03:29:27;;;;;;;4.40;2.10;;;;;;;11.57;87.51;96163.09;5031505;28;20041;-60
2023/03/24 03:32:06;;;;;;;7.15;2.22;;;;;;;11.15;89.99;96184.41;5030245;28;20042;-60
2023/03/24 03:34:49;;;;;;;3.43;1.67;;;;;;;11.15;89.46;96186.28;5037480;28;20494;-59
2023/03/24 03:37:29;;;;;;;4.28;2.20;;;;;;;11.31;87.26;96185.03;5031483;28;20237;-58
2023/03/24 03:40:15;;;;;;;4.05;1.80;;;;;;;11.32;87.01;96194.78;5034680;28;20681;-58
2023/03/24 03:42:46;;;;;;;4.45;2.13;;;;;;;11.34;86.22;96189.09;5027716;28;20135;-60
2023/03/24 03:45:13;;;;;;;4.13;1.95;;;;;;;11.34;86.10;96190.97;5035302;28;20693;-58
2023/03/24 03:47:40;;;;;;;5.38;2.10;;;;;;;11.37;85.93;96193.94;5036289;28;20270;-60
2023/03/24 03:50:08;;;;;;;3.88;1.83;;;;;;;11.41;85.15;96195.00;5037283;28;20163;-59
2023/03/24 03:52:37;;;;;;;3.00;1.85;;;;;;;11.43;85.10;96197.41;5033209;28;20047;-57
2023/03/24 03:55:05;;;;;;;4.20;1.75;;;;;;;11.44;84.82;96194.41;5039254;28;20080;-60
2023/03/24 03:57:34;;;;;;;3.70;1.88;;;;;;;11.39;84.62;96207.22;5034353;28;20536;-59
2023/03/24 04:00:16;;;;;;;4.20;1.90;;;;;;;11.25;86.12;96194.34;5033555;28;20655;-58
2023/03/24 04:03:21;;;;;;;3.88;1.95;;;;;;;11.36;84.83;96196.94;5041169;28;20147;-61
2023/03/24 04:06:00;;;;;;;5.65;2.33;;;;;;;11.37;84.62;96187.69;5027377;28;20124;-59
2023/03/24 04:09:00;;;;;;;4.43;1.87;;;;;;;11.35;84.62;96185.28;5027935;28;20095;-56
2023/03/24 04:11:32;;;;;;;3.70;2.03;;;;;;;11.29;85.54;96184.53;5032318;28;20056;-59
2023/03/24 04:14:47;;;;;;;5.30;2.15;;;;;;;11.46;84.26;96183.25;5031155;28;20045;-60
2023/03/24 04:17:49;;;;;;;5.15;1.88;;;;;;;11.51;83.44;96182.41;5028316;28;20040;-58
2023/03/24 04:20:37;;;;;;;4.47;1.97;;;;;;;11.56;82.90;96187.78;5035610;28;20042;-57
2023/03/24 04:23:18;;;;;;;4.37;2.17;;;;;;;11.65;81.97;96188.75;5037258;28;20655;-58
2023/03/24 04:25:44;;;;;;;3.55;1.88;;;;;;;11.58;82.87;96191.81;5032874;28;20045;-60
2023/03/24 04:28:29;;;;;;;6.53;2.37;;;;;;;11.44;84.07;96180.88;5036766;28;20075;-60
2023/03/24 04:31:01;;;;;;;5.90;2.20;;;;;;;11.33;85.11;96187.47;5038911;28;20095;-60
2023/03/24 04:33:41;;;;;;;3.90;2.10;;;;;;;11.31;85.19;96176.91;5032105;28;20061;-60
2023/03/24 04:36:21;;;;;;;3.28;2.03;;;;;;;11.37;84.73;96188.53;5030531;28;20065;-57
2023/03/24 04:39:24;;;;;;;5.68;2.40;;;;;;;11.47;83.90;96192.22;5027137;28;20129;-60
2023/03/24 04:41:52;;;;;;;4.30;2.60;;;;;;;11.43;84.10;96195.50;5030280;28;20119;-57
2023/03/24 04:44:26;;;;;;;6.20;2.65;;;;;;;11.43;84.07;96197.41;5036678;28;20034;-61
2023/03/24 04:47:22;;;;;;;4.65;2.70;;;;;;;11.52;83.57;96203.00;5020269;28;20117;-57
2023/03/24 04:50:10;;;;;;;4.57;2.60;;;;;;;11.69;82.10;96214.19;5024935;28;20045;-60
2023/03/24 04:52:38;;;;;;;6.35;2.38;;;;;;;11.78;81.84;96214.38;5033461;28;20050;-59
2023/03/24 04:55:31;;;;;;;5.88;2.47;;;;;;;11.70;82.48;96223.97;5032081;28;20540;-57
2023/03/24 04:57:57;;;;;;;4.85;2.83;;;;;;;11.65;84.99;96229.44;5043746;28;20615;-58
2023/03/24 05:00:24;;;;;;;5.45;2.05;;;;;;;11.74;83.99;96239.66;5031859;28;20040;-59
2023/03/24 05:02:51;;;;;;;3.92;1.70;;;;;;;11.62;85.39;96259.03;5029740;28;20037;-58
2023/03/24 05:05:23;;;;;;;4.80;2.10;;;;;;;11.47;87.67;96271.66;5041118;28;20117;-60
2023/03/24 05:07:50;;;;;;;3.80;2.15;;;;;;;11.39;89.13;96297.44;5039426;28;20045;-58
2023/03/24 05:10:18;;;;;;;4.32;2.17;;;;;;;11.28;92.14;96299.41;5029138;28;20045;-60
2023/03/24 05:12:51;;;;;;;5.00;2.20;;;;;;;11.09;95.05;96312.03;5034782;28;20049;-59
2023/03/24 05:15:18;;;;;;;5.00;2.13;;;;;;;10.85;98.02;96318.13;5033586;28;20499;-60
2023/03/24 05:17:50;;;;;;;4.28;1.98;;;;;;;10.73;99.77;96311.16;5040320;28;20036;-60
2023/03/24 05:20:19;;;;;;;3.63;1.92;;;;;;;10.69;100.00;96314.72;5029581;28;20468;-60
2023/03/24 05:22:49;;;;;;;3.97;1.88;;;;;;;10.83;100.00;96313.00;5032298;28;20049;-60
2023/03/24 05:25:17;;;;;;;6.85;2.30;;;;;;;10.64;100.00;96305.53;5042030;28;20053;-59
2023/03/24 05:27:44;;;;;;;4.38;2.17;;;;;;;10.50;100.00;96304.50;5029326;28;20140;-60
2023/03/24 05:30:19;;;;;;;8.25;2.53;;;;;;;10.46;100.00;96301.53;5042029;28;20463;-60
2023/03/24 05:32:47;;;;;;;5.07;2.50;;;;;;;10.42;100.00;96292.34;5031831;28;20076;-60
2023/03/24 05:35:14;;;;;;;5.40;2.53;;;;;;;10.47;100.00;96302.38;5031365;28;20603;-57
2023/03/24 05:37:42;;;;;;;5.30;2.28;;;;;;;10.57;100.00;96305.00;5027668;28;20083;-58
2023/03/24 05:40:09;;;;;;;4.20;2.10;;;;;;;10.73;100.00;96313.84;5030730;28;20053;-58
2023/03/24 05:42:49;;;;;;;4.00;2.50;;;;;;;10.63;100.00;96316.63;5013847;28;20135;-59
2023/03/24 05:45:16;;;;;;;4.45;2.25;;;;;;;10.52;100.00;96313.16;5029797;28;20129;-60
2023/03/24 05:47:43;;;;;;;6.25;2.70;;;;;;;10.45;100.00;96318.06;5026596;28;20088;-60
2023/03/24 05:50:10;;;;;;;5.30;2.28;;;;;;;10.41;100.00;96307.78;5027767;28;20655;-59
2023/03/24 05:52:36;;;;;;;4.75;2.35;;;;;;;10.35;100.00;96308.03;5028281;28;20056;-60
2023/03/24 05:55:29;;;;;;;5.20;2.50;;;;;;;10.45;100.00;96305.34;5033008;28;21717;-61
2023/03/24 05:58:03;;;;;;;6.00;2.72;;;;;;;10.29;100.00;96312.69;5036535;28;20147;-60
2023/03/24 06:00:43;;;;;;;6.65;3.03;;;;;;;10.22;100.00;96323.81;5036845;28;20045;-60
2023/03/24 06:03:16;;;;;;;9.15;3.25;;;;;;;10.27;100.00;96314.84;5036616;28;20136;-60
2023/03/24 06:05:51;;;;;;;5.18;3.53;;;;;;;10.28;100.00;96317.28;5031788;28;20080;-60
2023/03/24 06:08:18;;;;;;;9.70;3.20;;;;;;;10.31;100.00;96310.50;5032505;28;20045;-60
2023/03/24 06:10:44;;;;;;;6.22;3.17;;;;;;;10.27;100.00;96314.84;5030565;28;20606;-61
2023/03/24 06:13:11;;;;;;;9.93;3.63;;;;;;;10.31;100.00;96309.72;5020880;28;20042;-59
2023/03/24 06:15:41;;;;;;;7.03;3.50;;;;;;;10.35;100.00;96305.34;5036626;28;20052;-59
2023/03/24 06:18:32;;;;;;;6.50;3.70;;;;;;;10.37;100.00;96297.78;5032967;28;20045;-61
2023/03/24 06:21:06;;;;;;;6.47;3.42;;;;;;;10.44;100.00;96292.91;5039457;28;20073;-59
2023/03/24 06:23:33;;;;;;;7.40;3.20;;;;;;;10.49;100.00;96286.66;5030043;28;20520;-61
2023/03/24 06:26:08;;;;;;;7.72;3.25;;;;;;;10.58;100.00;96292.31;5032793;28;20046;-60
2023/03/24 06:28:38;;;;;;;7.00;2.85;;;;;;;10.69;100.00;96304.69;5038250;28;20052;-60
2023/03/24 06:31:17;;;;;;;6.20;2.83;;;;;;;10.79;100.00;96299.22;5043794;28;20274;-60
2023/03/24 06:33:49;;;;;;;5.07;2.50;;;;;;;10.91;100.00;96298.88;5042709;28;20136;-61
2023/03/24 06:36:17;;;;;;;4.35;2.65;;;;;;;10.98;100.00;96295.84;5030122;28;20049;-61
2023/03/24 06:38:44;;;;;;;6.85;2.65;;;;;;;11.10;100.00;96294.69;5031617;28;20041;-59
2023/03/24 06:41:15;;;;;;;;;;;;;;;11.09;100.00;96298.50;5030246;28;20132;-60
2023/03/24 06:43:42;;;;;;;5.18;2.63;;;;;;;11.17;100.00;96298.69;5031983;28;19925;-58
2023/03/24 06:46:09;;;;;;;4.40;2.60;;;;;;;11.18;100.00;96302.22;5029400;28;20561;-60
2023/03/24 06:48:39;;;;;;;6.88;2.97;;;;;;;11.23;100.00;96307.59;5032208;28;20053;-60
2023/03/24 06:51:06;;;;;;;6.65;3.13;;;;;;;11.16;100.00;96312.50;5029541;28;20045;-58
2023/03/24 06:53:34;;;;;;;4.82;2.60;;;;;;;11.13;100.00;96307.69;5038957;28;20060;-57
2023/03/24 06:56:01;;;;;;;4.78;2.53;;;;;;;11.09;100.00;96312.03;5026950;28;20046;-59
2023/03/24 06:58:34;;;;;;;4.80;3.00;;;;;;;11.05;100.00;96318.00;5029248;28;20041;-60
2023/03/24 07:01:05;;;;;;;6.30;3.05;;;;;;;11.00;100.00;96317.22;5024521;28;20141;-60
2023/03/24 07:03:58;;;;;;;8.45;3.03;;;;;;;10.97;100.00;96323.22;5009907;28;20067;-60
2023/03/24 07:06:33;;;;;;;5.90;2.85;;;;;;;10.92;100.00;96335.69;5030473;28;20053;-60
2023/03/24 07:09:16;;;;;;;6.95;3.10;;;;;;;10.87;100.00;96326.81;5023657;28;20508;-61
2023/03/24 07:11:43;;;;;;;6.10;3.13;;;;;;;10.86;100.00;96331.41;5033304;28;20034;-59
2023/03/24 07:14:10;;;;;;;6.30;2.67;;;;;;;10.85;100.00;96331.69;5024098;28;20045;-59
2023/03/24 07:16:36;;;;;;;5.38;2.75;;;;;;;10.95;100.00;96341.66;5024402;28;20111;-60
2023/03/24 07:19:32;;;;;;;5.93;3.30;;;;;;;10.82;100.00;96348.47;5026744;28;20107;-61
2023/03/24 07:22:16;;;;;;;6.30;3.63;;;;;;;10.75;100.00;96343.38;5039175;28;20049;-60
2023/03/24 07:25:04;;;;;;;5.90;3.58;;;;;;;10.77;100.00;96355.53;5029455;28;20045;-60
2023/03/24 07:27:43;;;;;;;7.10;3.38;;;;;;;10.72;100.00;96354.78;5040534;28;20099;-60
2023/03/24 07:30:10;;;;;;;7.30;3.50;;;;;;;10.74;100.00;96356.13;5035362;28;20048;-61
2023/03/24 07:32:41;;;;;;;6.63;3.70;;;;;;;10.75;100.00;96360.44;5034925;28;20029;-60
2023/03/24 07:35:09;;;;;;;6.60;3.40;;;;;;;10.77;100.00;96357.44;5036058;28;20054;-61
2023/03/24 07:37:36;;;;;;;6.25;3.00;;;;;;;10.74;100.00;96360.72;5036325;28;20095;-61
2023/03/24 07:40:08;;;;;;;8.68;2.75;;;;;;;10.79;100.00;96363.38;5024206;28;20045;-62
2023/03/24 07:42:35;;;;;;;8.00;3.35;;;;;;;10.78;100.00;96365.31;5028670;28;20061;-62
2023/03/24 07:45:20;;;;;;;4.97;2.78;;;;;;;10.85;100.00;96362.28;5031864;28;20175;-61
2023/03/24 07:47:47;;;;;;;5.97;2.90;;;;;;;10.82;100.00;96368.25;5038886;28;21318;-62
2023/03/24 07:50:14;;;;;;;5.13;2.90;;;;;;;10.82;100.00;96376.38;5038921;28;20050;-61
2023/03/24 07:52:45;;;;;;;6.20;3.10;;;;;;;10.79;100.00;96372.31;5035760;28;20033;-60
2023/03/24 07:55:14;;;;;;;5.97;2.92;;;;;;;10.80;100.00;96386.69;5035996;28;20049;-62
2023/03/24 07:57:54;;;;;;;6.68;2.92;;;;;;;10.84;100.00;96390.44;5033348;28;20503;-62
2023/03/24 08:00:23;;;;;;;5.18;2.72;;;;;;;10.83;100.00;96394.22;5030017;28;20041;-61
2023/03/24 08:03:08;;;;;;;7.47;3.13;;;;;;;10.78;100.00;96394.25;5030980;28;20152;-58
2023/03/24 08:05:44;;;;;;;5.65;2.50;;;;;;;10.87;100.00;96389.88;5029786;28;20045;-58
2023/03/24 08:08:17;;;;;;;5.90;2.75;;;;;;;11.04;100.00;96384.13;5034337;28;20040;-57
2023/03/24 08:10:45;;;;;;;7.25;3.03;;;;;;;10.89;100.00;96376.88;5030263;28;20057;-59
2023/03/24 08:13:12;;;;;;;6.50;2.83;;;;;;;10.86;100.00;96344.94;5029700;28;20041;-58
2023/03/24 08:15:38;;;;;;;4.85;2.58;;;;;;;10.88;100.00;96312.16;5034888;28;20075;-59
2023/03/24 08:18:05;;;;;;;5.50;2.45;;;;;;;10.90;100.00;96320.81;5027819;28;20118;-57
2023/03/24 08:20:32;;;;;;;5.13;2.22;;;;;;;10.92;100.00;96324.06;5040587;28;20044;-57
2023/03/24 08:22:59;;;;;;;4.10;2.08;;;;;;;10.97;100.00;96310.47;5031936;28;20759;-60
2023/03/24 08:25:26;;;;;;;3.92;2.08;;;;;;;10.96;100.00;96289.91;5033982;28;20045;-59
2023/03/24 08:27:53;;;;;;;3.33;2.05;;;;;;;11.04;100.00;96243.28;5028280;28;20048;-58
2023/03/24 08:30:22;;;;;;;4.55;2.15;;;;;;;11.03;100.00;96273.34;5033091;28;20504;-55
2023/03/24 08:32:58;;;;;;;2.97;1.50;;;;;;;11.05;100.00;96271.16;5033666;28;20674;-59
2023/03/24 08:35:28;;;;;;;2.70;1.70;;;;;;;11.12;100.00;96268.13;5028707;28;20060;-59
2023/03/24 08:37:54;;;;;;;4.65;2.00;;;;;;;11.19;100.00;96282.16;5032781;28;20128;-59
2023/03/24 08:40:22;;;;;;;3.97;1.85;;;;;;;11.17;100.00;96293.28;5029842;28;20076;-59
2023/03/24 08:42:52;;;;;;;4.75;2.03;;;;;;;11.37;100.00;96304.25;5028847;28;20040;-60
2023/03/24 08:45:22;;;;;;;3.15;1.63;;;;;;;11.40;100.00;96312.63;5033433;28;20136;-56
2023/03/24 08:47:51;;;;;;;3.33;1.80;;;;;;;11.48;100.00;96304.97;5031655;28;20721;-56
2023/03/24 08:50:20;;;;;;;2.33;1.40;;;;;;;11.53;100.00;96315.75;5029482;28;20061;-56
2023/03/24 08:52:47;;;;;;;4.22;1.77;;;;;;;11.65;100.00;96324.31;5031463;28;20280;-57
2023/03/24 08:55:15;;;;;;;3.13;1.35;;;;;;;11.79;100.00;96326.41;5029673;28;20048;-55
2023/03/24 08:57:42;;;;;;;3.38;1.30;;;;;;;11.80;100.00;96336.94;5031174;28;20041;-56
2023/03/24 09:00:13;;;;;;;2.92;1.58;;;;;;;11.86;100.00;96331.50;5024363;28;20049;-56
2023/03/24 09:02:42;;;;;;;3.00;1.27;;;;;;;11.89;100.00;96322.75;5032820;28;20451;-57
2023/03/24 09:05:09;;;;;;;2.30;1.27;;;;;;;11.86;100.00;96328.78;5029330;28;20604;-56
2023/03/24 09:07:35;;;;;;;3.08;1.77;;;;;;;11.78;100.00;96336.44;5031938;28;20535;-60
2023/03/24 09:10:04;;;;;;;2.90;1.40;;;;;;;11.65;100.00;96343.31;5035418;28;20105;-59
2023/03/24 09:12:30;;;;;;;3.17;1.50;;;;;;;11.64;100.00;96340.91;5041098;28;20037;-56
2023/03/24 09:14:57;;;;;;;2.97;1.50;;;;;;;11.60;100.00;96348.00;5028301;28;20068;-57
2023/03/24 09:17:23;;;;;;;2.20;1.40;;;;;;;11.63;100.00;96347.41;5037280;28;20045;-58
2023/03/24 09:19:50;;;;;;;3.08;1.58;;;;;;;11.69;100.00;96349.78;5029146;28;20603;-56
2023/03/24 09:22:16;;;;;;;2.85;1.60;;;;;;;11.78;100.00;96350.00;5035555;28;20042;-56
2023/03/24 09:24:43;;;;;;;2.72;1.50;;;;;;;11.92;100.00;96349.31;5035360;28;20116;-53
2023/03/24 09:27:10;;;;;;;3.33;1.80;;;;;;;12.03;100.00;96345.41;5026974;28;20114;-57
2023/03/24 09:29:36;;;;;;;3.35;1.75;;;;;;;12.10;100.00;96353.25;5038151;28;20622;-58
2023/03/24 09:32:03;;;;;;;2.70;1.58;;;;;;;12.13;100.00;96351.88;5033925;28;20033;-56
2023/03/24 09:34:31;;;;;;;2.90;1.40;;;;;;;12.22;100.00;96347.41;5035094;28;20041;-57
2023/03/24 09:36:59;;;;;;;2.65;1.40;;;;;;;12.33;100.00;96348.94;5031945;28;20053;-57
2023/03/24 09:39:26;;;;;;;2.15;1.23;;;;;;;12.33;100.00;96337.25;5032899;28;20041;-55
2023/03/24 09:41:54;;;;;;;3.28;1.40;;;;;;;12.44;100.00;96335.22;5030435;28;20558;-52
2023/03/24 09:44:30;;;;;;;2.25;1.30;;;;;;;12.56;100.00;96313.91;5031897;28;20060;-54
2023/03/24 09:47:02;;;;;;;4.22;1.70;;;;;;;12.70;100.00;96324.06;5033118;28;20053;-57
2023/03/24 09:49:32;;;;;;;2.33;1.42;;;;;;;12.79;100.00;96325.00;5033319;28;20040;-56
2023/03/24 09:52:14;;;;;;;2.72;1.13;;;;;;;12.87;100.00;96335.22;5030702;28;20038;-55
2023/03/24 09:54:53;;;;;;;2.55;1.40;;;;;;;12.86;99.61;96311.88;5032347;28;20045;-55
2023/03/24 09:57:39;;;;;;;2.03;1.15;;;;;;;13.14;99.50;96316.66;5031986;28;20048;-56
2023/03/24 10:00:27;;;;;;;4.13;1.40;;;;;;;13.31;99.04;96318.03;5030741;28;20527;-57
2023/03/24 10:03:13;;;;;;;3.28;1.50;;;;;;;13.43;98.42;96317.59;5027171;28;20041;-55
2023/03/24 10:05:49;;;;;;;3.22;1.27;;;;;;;13.50;93.93;96318.84;5037061;28;20122;-55
2023/03/24 10:08:35;;;;;;;3.67;1.27;;;;;;;13.55;95.10;96312.53;5028069;28;20598;-55
2023/03/24 10:11:04;;;;;;;1.88;1.20;;;;;;;13.53;95.41;96320.97;5037250;28;20068;-55
2023/03/24 10:14:03;;;;;;;2.63;1.30;;;;;;;13.73;94.81;96329.91;5031082;28;20045;-58
2023/03/24 10:16:44;;;;;;;3.85;1.50;;;;;;;13.69;94.92;96330.78;5026054;28;20041;-55
2023/03/24 10:19:13;;;;;;;3.80;1.70;;;;;;;13.91;93.75;96330.97;5028316;28;20124;-56
2023/03/24 10:21:49;;;;;;;3.35;1.13;;;;;;;13.91;89.89;96341.03;5032038;28;20037;-56
2023/03/24 10:24:28;;;;;;;2.25;1.10;;;;;;;13.71;93.15;96350.34;5039105;28;20144;-56
2023/03/24 10:27:42;;;;;;;2.47;1.25;;;;;;;13.52;92.23;96349.28;5037574;28;20052;-55
2023/03/24 10:30:19;;;;;;;2.33;0.90;;;;;;;13.52;88.86;96346.56;5025588;28;20333;-58
2023/03/24 10:32:46;;;;;;;2.38;1.15;;;;;;;13.56;89.09;96349.47;5032770;28;20041;-59
2023/03/24 10:35:24;;;;;;;2.35;1.13;;;;;;;13.57;92.06;96347.59;5027449;28;20717;-57
2023/03/24 10:37:56;;;;;;;1.90;1.10;;;;;;;13.60;91.98;96358.66;5029902;28;20045;-57
2023/03/24 10:40:27;;;;;;;1.95;1.13;;;;;;;13.65;88.87;96361.28;5035135;28;20040;-56
2023/03/24 10:43:02;;;;;;;2.78;1.23;;;;;;;13.42;90.26;96364.91;5034395;28;20547;-57
2023/03/24 10:45:37;;;;;;;2.47;1.20;;;;;;;13.32;91.55;96355.81;5033038;28;20065;-57
2023/03/24 10:48:04;;;;;;;2.35;1.30;;;;;;;13.46;91.61;96376.81;5029181;28;20048;-58
2023/03/24 10:50:34;;;;;;;2.70;1.30;;;;;;;13.42;90.30;96373.88;5039740;28;20065;-56
2023/03/24 10:53:08;;;;;;;2.13;1.15;;;;;;;13.61;90.16;96373.91;5033150;28;20090;-57
2023/03/24 10:55:42;;;;;;;2.60;1.20;;;;;;;13.67;89.03;96373.81;5036908;28;20120;-60
2023/03/24 10:58:37;;;;;;;2.45;1.35;;;;;;;13.71;89.18;96377.56;5037103;28;20139;-57
2023/03/24 11:01:21;;;;;;;1.60;0.90;;;;;;;13.99;87.08;96381.16;5031798;28;20107;-58
2023/03/24 11:03:48;;;;;;;1.55;1.00;;;;;;;13.89;87.52;96370.44;5038751;28;20072;-57
2023/03/24 11:06:18;;;;;;;1.58;0.80;;;;;;;14.16;86.23;96371.63;5037014;28;20091;-57
2023/03/24 11:08:44;;;;;;;2.05;1.02;;;;;;;14.28;87.05;96368.41;5036430;28;20426;-57
2023/03/24 11:11:30;;;;;;;2.25;0.82;;;;;;;14.30;82.76;96363.47;5030651;28;20095;-57
2023/03/24 11:14:00;;;;;;;1.98;0.90;;;;;;;14.34;85.13;96371.84;5033915;28;20045;-53
2023/03/24 11:16:35;;;;;;;1.65;0.93;;;;;;;14.20;85.40;96375.38;5041396;28;20041;-53
2023/03/24 11:19:16;;;;;;;2.78;1.00;;;;;;;14.12;82.81;96368.69;5034579;28;20037;-58
2023/03/24 11:21:46;;;;;;;2.63;1.17;;;;;;;14.09;82.51;96382.09;5032833;28;20049;-56
2023/03/24 11:24:15;;;;;;;1.70;0.80;;;;;;;13.93;83.70;96390.50;5034777;28;20045;-57
2023/03/24 11:26:45;;;;;;;2.17;1.50;;;;;;;14.08;82.52;96372.31;5030259;28;20052;-57
2023/03/24 11:29:16;;;;;;;2.20;0.80;;;;;;;13.85;83.12;96385.75;5029691;28;20041;-58
2023/03/24 11:32:00;;;;;;;1.92;0.95;;;;;;;13.57;83.71;96383.75;5036282;28;20044;-56
2023/03/24 11:34:40;;;;;;;2.35;0.90;;;;;;;13.67;84.28;96377.31;5031470;28;20102;-58
2023/03/24 11:37:14;;;;;;;2.70;1.13;;;;;;;13.45;85.00;96384.16;5030539;28;20045;-58
2023/03/24 11:39:43;;;;;;;0.80;0.63;;;;;;;13.47;83.64;96405.63;5024349;28;20037;-57
2023/03/24 11:42:09;;;;;;;0.55;0.40;;;;;;;13.48;81.93;96399.91;5038013;28;20048;-56
2023/03/24 11:44:52;;;;;;;1.45;0.85;;;;;;;13.54;84.31;96387.06;5028050;28;20091;-59
2023/03/24 11:47:31;;;;;;;2.15;0.60;;;;;;;13.59;81.95;96397.84;5037604;28;20054;-57
2023/03/24 11:50:10;;;;;;;0.85;0.52;;;;;;;13.54;84.23;96389.78;5030331;28;20114;-60
2023/03/24 11:52:52;;;;;;;1.42;0.63;;;;;;;13.62;83.18;96380.94;5031036;28;20095;-58
2023/03/24 11:55:33;;;;;;;;;;;;;;;13.62;83.32;96391.81;5033215;28;20128;-59
2023/03/24 11:58:22;;;;;;;1.10;0.70;;;;;;;13.87;84.37;96380.81;5028679;28;19968;-59
2023/03/24 12:00:56;;;;;;;1.20;0.68;;;;;;;13.67;83.97;96380.03;5040138;28;20057;-59
2023/03/24 12:03:47;;;;;;;3.40;0.80;;;;;;;13.70;83.06;96376.75;5028272;28;20041;-57